createdAt,value
2023-03-06T00:00:03.058Z,998.48
2023-03-06T00:01:02.900Z,998.49
2023-03-06T00:02:02.463Z,998.48
2023-03-06T00:03:01.872Z,998.46
2023-03-06T00:04:02.058Z,998.50
2023-03-06T00:05:01.917Z,998.53
2023-03-06T00:06:02.302Z,998.47
2023-03-06T00:07:02.519Z,998.43
2023-03-06T00:08:02.263Z,998.46
2023-03-06T00:09:02.715Z,998.38
2023-03-06T00:10:02.272Z,998.40
2023-03-06T00:11:02.787Z,998.46
2023-03-06T00:12:02.796Z,998.37
2023-03-06T00:13:02.535Z,998.39
2023-03-06T00:14:02.916Z,998.42
2023-03-06T00:15:05.178Z,998.39
2023-03-06T00:16:02.518Z,998.35
2023-03-06T00:17:02.445Z,998.33
2023-03-06T00:18:02.261Z,998.37
2023-03-06T00:19:02.664Z,998.31
2023-03-06T00:20:02.172Z,998.31
2023-03-06T00:21:02.035Z,998.35
2023-03-06T00:22:03.142Z,998.30
2023-03-06T00:23:02.623Z,998.32
2023-03-06T00:24:02.518Z,998.28
2023-03-06T00:25:02.762Z,998.30
2023-03-06T00:26:03.091Z,998.31
2023-03-06T00:27:02.671Z,998.28
2023-03-06T00:28:03.159Z,998.28
2023-03-06T00:29:02.992Z,998.24
2023-03-06T00:30:03.183Z,998.25
2023-03-06T00:31:02.868Z,998.23
2023-03-06T00:32:01.717Z,998.26
2023-03-06T00:33:01.861Z,998.29
2023-03-06T00:34:02.148Z,998.21
2023-03-06T00:35:02.285Z,998.21
2023-03-06T00:36:01.728Z,998.20
2023-03-06T00:37:02.137Z,998.16
2023-03-06T00:38:02.551Z,998.16
2023-03-06T00:39:02.756Z,998.14
2023-03-06T00:40:02.242Z,998.20
2023-03-06T00:41:02.669Z,998.18
2023-03-06T00:42:03.097Z,998.18
2023-03-06T00:43:02.459Z,998.13
2023-03-06T00:44:02.717Z,998.13
2023-03-06T00:45:02.393Z,998.08
2023-03-06T00:46:02.788Z,998.13
2023-03-06T00:47:03.228Z,998.13
2023-03-06T00:48:02.622Z,998.13
2023-03-06T00:49:02.993Z,998.06
2023-03-06T00:50:02.732Z,998.13
2023-03-06T00:51:03.033Z,998.12
2023-03-06T00:52:02.305Z,998.06
2023-03-06T00:53:01.739Z,998.05
2023-03-06T00:54:02.120Z,998.16
2023-03-06T00:55:01.771Z,998.15
2023-03-06T00:56:01.939Z,998.12
2023-03-06T00:57:02.844Z,998.07
2023-03-06T00:58:02.279Z,998.11
2023-03-06T00:59:02.596Z,998.08
2023-03-06T01:00:02.302Z,998.02
2023-03-06T01:01:02.732Z,998.08
2023-03-06T01:02:03.140Z,998.03
2023-03-06T01:03:03.043Z,998.01
2023-03-06T01:04:03.012Z,997.99
2023-03-06T01:05:02.684Z,998.02
2023-03-06T01:06:02.957Z,998.04
2023-03-06T01:07:02.670Z,997.99
2023-03-06T01:08:02.943Z,997.96
2023-03-06T01:09:02.622Z,997.94
2023-03-06T01:10:02.937Z,997.96
2023-03-06T01:11:02.604Z,997.85
2023-03-06T01:12:03.521Z,997.88
2023-03-06T01:13:03.611Z,997.88
2023-03-06T01:14:02.971Z,997.89
2023-03-06T01:15:03.277Z,997.84
2023-03-06T01:16:03.628Z,997.84
2023-03-06T01:17:02.028Z,997.79
2023-03-06T01:18:02.323Z,997.78
2023-03-06T01:19:02.437Z,997.78
2023-03-06T01:20:02.162Z,997.77
2023-03-06T01:21:02.375Z,997.78
2023-03-06T01:22:02.737Z,997.77
2023-03-06T01:23:03.014Z,997.77
2023-03-06T01:24:02.704Z,997.75
2023-03-06T01:25:03.019Z,997.71
2023-03-06T01:26:02.650Z,997.72
2023-03-06T01:27:02.974Z,997.73
2023-03-06T01:28:03.385Z,997.71
2023-03-06T01:29:03.005Z,997.74
2023-03-06T01:30:03.358Z,997.74
2023-03-06T01:31:02.977Z,997.67
2023-03-06T01:32:02.579Z,997.62
2023-03-06T01:33:02.333Z,997.62
2023-03-06T01:34:02.668Z,997.66
2023-03-06T01:35:02.295Z,997.67
2023-03-06T01:36:02.620Z,997.63
2023-03-06T01:37:02.979Z,997.60
2023-03-06T01:38:03.273Z,997.59
2023-03-06T01:39:02.857Z,997.60
2023-03-06T01:40:03.124Z,997.57
2023-03-06T01:41:03.383Z,997.64
2023-03-06T01:42:02.676Z,997.58
2023-03-06T01:43:02.407Z,997.55
2023-03-06T01:44:02.738Z,997.54
2023-03-06T01:45:02.347Z,997.51
2023-03-06T01:46:02.661Z,997.50
2023-03-06T01:47:02.978Z,997.52
2023-03-06T01:48:03.281Z,997.46
2023-03-06T01:49:02.885Z,997.46
2023-03-06T01:50:03.188Z,997.47
2023-03-06T01:51:03.442Z,997.45
2023-03-06T01:52:02.662Z,997.46
2023-03-06T01:53:02.967Z,997.38
2023-03-06T01:54:02.373Z,997.36
2023-03-06T01:55:02.723Z,997.30
2023-03-06T01:56:02.368Z,997.36
2023-03-06T01:57:02.829Z,997.29
2023-03-06T01:58:03.101Z,997.31
2023-03-06T01:59:02.669Z,997.31
2023-03-06T02:00:02.559Z,997.31
2023-03-06T02:01:03.040Z,997.30
2023-03-06T02:02:03.054Z,997.29
2023-03-06T02:03:03.377Z,997.29
2023-03-06T02:04:03.042Z,997.31
2023-03-06T02:05:03.376Z,997.20
2023-03-06T02:06:02.963Z,997.22
2023-03-06T02:07:03.671Z,997.26
2023-03-06T02:08:03.115Z,997.22
2023-03-06T02:09:03.403Z,997.19
2023-03-06T02:10:03.517Z,997.17
2023-03-06T02:11:03.174Z,997.17
2023-03-06T02:12:02.970Z,997.19
2023-03-06T02:13:02.449Z,997.19
2023-03-06T02:14:02.818Z,997.16
2023-03-06T02:15:02.455Z,997.16
2023-03-06T02:16:02.840Z,997.12
2023-03-06T02:17:03.182Z,997.07
2023-03-06T02:18:02.885Z,997.10
2023-03-06T02:19:03.230Z,997.10
2023-03-06T02:20:03.449Z,997.10
2023-03-06T02:21:02.880Z,997.11
2023-03-06T02:22:03.277Z,997.07
2023-03-06T02:23:03.104Z,997.11
2023-03-06T02:24:03.531Z,997.05
2023-03-06T02:25:03.184Z,997.04
2023-03-06T02:26:03.579Z,997.05
2023-03-06T02:27:02.778Z,997.03
2023-03-06T02:28:03.018Z,997.00
2023-03-06T02:29:02.567Z,997.05
2023-03-06T02:30:02.997Z,997.05
2023-03-06T02:31:02.490Z,997.01
2023-03-06T02:32:02.985Z,996.99
2023-03-06T02:33:02.722Z,996.98
2023-03-06T02:34:03.050Z,996.97
2023-03-06T02:35:02.547Z,997.00
2023-03-06T02:36:03.017Z,996.94
2023-03-06T02:37:03.354Z,996.91
2023-03-06T02:38:03.024Z,996.92
2023-03-06T02:39:03.603Z,996.89
2023-03-06T02:40:02.980Z,996.95
2023-03-06T02:41:03.224Z,996.91
2023-03-06T02:42:02.590Z,996.91
2023-03-06T02:43:02.245Z,996.90
2023-03-06T02:44:02.576Z,996.90
2023-03-06T02:45:02.202Z,996.86
2023-03-06T02:46:02.572Z,996.83
2023-03-06T02:47:03.029Z,996.81
2023-03-06T02:48:02.634Z,996.82
2023-03-06T02:49:02.951Z,996.84
2023-03-06T02:50:02.565Z,996.87
2023-03-06T02:51:02.875Z,996.78
2023-03-06T02:52:03.410Z,996.79
2023-03-06T02:53:02.827Z,996.80
2023-03-06T02:54:03.020Z,996.76
2023-03-06T02:55:03.291Z,996.75
2023-03-06T02:56:02.962Z,996.72
2023-03-06T02:57:03.214Z,996.76
2023-03-06T02:58:02.876Z,996.76
2023-03-06T02:59:03.143Z,996.73
2023-03-06T03:00:03.475Z,996.77
2023-03-06T03:01:02.814Z,996.71
2023-03-06T03:02:02.992Z,996.70
2023-03-06T03:03:02.519Z,996.69
2023-03-06T03:04:02.796Z,996.69
2023-03-06T03:05:03.114Z,996.74
2023-03-06T03:06:03.132Z,996.75
2023-03-06T03:07:03.270Z,996.63
2023-03-06T03:08:02.918Z,996.69
2023-03-06T03:09:02.907Z,996.71
2023-03-06T03:10:03.228Z,996.73
2023-03-06T03:11:03.314Z,996.67
2023-03-06T03:12:03.503Z,996.62
2023-03-06T03:13:03.138Z,996.62
2023-03-06T03:14:03.451Z,996.63
2023-03-06T03:15:03.661Z,996.64
2023-03-06T03:16:03.098Z,996.60
2023-03-06T03:17:03.447Z,996.62
2023-03-06T03:18:03.528Z,996.57
2023-03-06T03:19:03.245Z,996.55
2023-03-06T03:20:03.514Z,996.59
2023-03-06T03:21:03.065Z,996.54
2023-03-06T03:22:03.154Z,996.52
2023-03-06T03:23:02.854Z,996.56
2023-03-06T03:24:03.164Z,996.58
2023-03-06T03:25:03.224Z,996.58
2023-03-06T03:26:02.658Z,996.59
2023-03-06T03:27:02.747Z,996.50
2023-03-06T03:28:02.449Z,996.52
2023-03-06T03:29:02.823Z,996.50
2023-03-06T03:30:02.242Z,996.54
2023-03-06T03:31:02.223Z,996.61
2023-03-06T03:32:03.304Z,996.52
2023-03-06T03:33:03.359Z,996.58
2023-03-06T03:34:03.185Z,996.60
2023-03-06T03:35:02.914Z,996.56
2023-03-06T03:36:03.263Z,996.56
2023-03-06T03:37:03.374Z,996.57
2023-03-06T03:38:02.891Z,996.55
2023-03-06T03:39:03.249Z,996.50
2023-03-06T03:40:03.381Z,996.50
2023-03-06T03:41:02.852Z,996.56
2023-03-06T03:42:03.102Z,996.55
2023-03-06T03:43:02.532Z,996.47
2023-03-06T03:44:02.897Z,996.44
2023-03-06T03:45:02.461Z,996.44
2023-03-06T03:46:02.834Z,996.50
2023-03-06T03:47:03.078Z,996.44
2023-03-06T03:48:02.843Z,996.45
2023-03-06T03:49:02.517Z,996.47
2023-03-06T03:50:02.812Z,996.43
2023-03-06T03:51:03.175Z,996.44
2023-03-06T03:52:02.170Z,996.47
2023-03-06T03:53:02.488Z,996.37
2023-03-06T03:54:02.693Z,996.39
2023-03-06T03:55:02.061Z,996.39
2023-03-06T03:56:02.505Z,996.37
2023-03-06T03:57:02.194Z,996.35
2023-03-06T03:58:02.247Z,996.33
2023-03-06T03:59:02.544Z,996.30
2023-03-06T04:00:02.161Z,996.31
2023-03-06T04:01:02.625Z,996.28
2023-03-06T04:02:02.825Z,996.26
2023-03-06T04:03:02.890Z,996.22
2023-03-06T04:04:02.295Z,996.29
2023-03-06T04:05:02.868Z,996.27
2023-03-06T04:06:02.297Z,996.23
2023-03-06T04:07:02.701Z,996.24
2023-03-06T04:08:02.636Z,996.23
2023-03-06T04:09:03.004Z,996.18
2023-03-06T04:10:02.958Z,996.19
2023-03-06T04:11:02.631Z,996.23
2023-03-06T04:12:02.042Z,996.11
2023-03-06T04:13:02.407Z,996.17
2023-03-06T04:14:02.095Z,996.17
2023-03-06T04:15:02.226Z,996.06
2023-03-06T04:16:01.975Z,996.16
2023-03-06T04:17:02.266Z,996.10
2023-03-06T04:18:02.342Z,996.12
2023-03-06T04:19:02.792Z,996.11
2023-03-06T04:20:02.190Z,996.14
2023-03-06T04:21:02.469Z,996.10
2023-03-06T04:22:03.048Z,996.08
2023-03-06T04:23:03.429Z,996.10
2023-03-06T04:24:02.961Z,996.12
2023-03-06T04:25:03.217Z,996.12
2023-03-06T04:26:03.032Z,996.09
2023-03-06T04:27:02.499Z,996.12
2023-03-06T04:28:02.490Z,996.10
2023-03-06T04:29:02.990Z,996.09
2023-03-06T04:30:02.471Z,996.06
2023-03-06T04:31:03.134Z,996.07
2023-03-06T04:32:02.723Z,996.04
2023-03-06T04:33:02.539Z,996.02
2023-03-06T04:34:02.479Z,996.01
2023-03-06T04:35:02.985Z,996.01
2023-03-06T04:36:02.729Z,995.99
2023-03-06T04:37:01.998Z,996.02
2023-03-06T04:38:02.479Z,995.98
2023-03-06T04:39:02.022Z,995.98
2023-03-06T04:40:02.411Z,995.92
2023-03-06T04:41:02.303Z,995.99
2023-03-06T04:42:02.770Z,995.94
2023-03-06T04:43:02.772Z,995.97
2023-03-06T04:44:03.142Z,995.92
2023-03-06T04:45:02.696Z,995.92
2023-03-06T04:46:03.185Z,995.90
2023-03-06T04:47:02.528Z,995.89
2023-03-06T04:48:02.854Z,995.90
2023-03-06T04:49:02.829Z,995.89
2023-03-06T04:50:02.213Z,995.88
2023-03-06T04:51:02.523Z,995.84
2023-03-06T04:52:02.223Z,995.85
2023-03-06T04:53:01.969Z,995.83
2023-03-06T04:54:02.437Z,995.83
2023-03-06T04:55:02.383Z,995.88
2023-03-06T04:56:01.859Z,995.80
2023-03-06T04:57:01.941Z,995.81
2023-03-06T04:58:02.313Z,995.81
2023-03-06T04:59:02.076Z,995.80
2023-03-06T05:00:02.490Z,995.78
2023-03-06T05:01:02.288Z,995.81
2023-03-06T05:02:02.742Z,995.78
2023-03-06T05:03:02.492Z,995.82
2023-03-06T05:04:02.923Z,995.81
2023-03-06T05:05:02.312Z,995.75
2023-03-06T05:06:02.509Z,995.75
2023-03-06T05:07:02.664Z,995.75
2023-03-06T05:08:02.922Z,995.74
2023-03-06T05:09:02.842Z,995.71
2023-03-06T05:10:02.614Z,995.74
2023-03-06T05:11:03.005Z,995.74
2023-03-06T05:12:03.074Z,995.72
2023-03-06T05:13:02.895Z,995.68
2023-03-06T05:14:03.004Z,995.69
2023-03-06T05:15:02.895Z,995.69
2023-03-06T05:16:03.335Z,995.64
2023-03-06T05:17:02.792Z,995.62
2023-03-06T05:18:02.329Z,995.61
2023-03-06T05:19:02.296Z,995.60
2023-03-06T05:20:02.802Z,995.67
2023-03-06T05:21:02.220Z,995.61
2023-03-06T05:22:03.234Z,995.58
2023-03-06T05:23:03.034Z,995.63
2023-03-06T05:24:03.429Z,995.64
2023-03-06T05:25:02.945Z,995.60
2023-03-06T05:26:03.353Z,995.62
2023-03-06T05:27:02.868Z,995.59
2023-03-06T05:28:02.846Z,995.65
2023-03-06T05:29:02.550Z,995.65
2023-03-06T05:30:03.004Z,995.61
2023-03-06T05:31:03.551Z,995.59
2023-03-06T05:32:03.309Z,995.57
2023-03-06T05:33:02.831Z,995.62
2023-03-06T05:34:02.610Z,995.62
2023-03-06T05:35:02.631Z,995.68
2023-03-06T05:36:02.802Z,995.59
2023-03-06T05:37:03.282Z,995.67
2023-03-06T05:38:03.103Z,995.57
2023-03-06T05:39:03.519Z,995.65
2023-03-06T05:40:03.577Z,995.58
2023-03-06T05:41:03.536Z,995.60
2023-03-06T05:42:03.068Z,995.65
2023-03-06T05:43:02.576Z,995.60
2023-03-06T05:44:02.836Z,995.63
2023-03-06T05:45:02.632Z,995.68
2023-03-06T05:46:02.574Z,995.66
2023-03-06T05:47:03.228Z,995.69
2023-03-06T05:48:02.719Z,995.67
2023-03-06T05:49:02.923Z,995.67
2023-03-06T05:50:03.190Z,995.71
2023-03-06T05:51:02.929Z,995.65
2023-03-06T05:52:03.222Z,995.69
2023-03-06T05:53:02.968Z,995.65
2023-03-06T05:54:03.421Z,995.67
2023-03-06T05:55:03.381Z,995.68
2023-03-06T05:56:02.889Z,995.71
2023-03-06T05:57:03.355Z,995.65
2023-03-06T05:58:03.181Z,995.69
2023-03-06T05:59:03.176Z,995.62
2023-03-06T06:00:03.021Z,995.63
2023-03-06T06:01:02.972Z,995.65
2023-03-06T06:02:03.479Z,995.67
2023-03-06T06:03:03.220Z,995.68
2023-03-06T06:04:03.024Z,995.62
2023-03-06T06:05:03.280Z,995.60
2023-03-06T06:06:03.008Z,995.61
2023-03-06T06:07:03.617Z,995.68
2023-03-06T06:08:03.110Z,995.65
2023-03-06T06:09:03.559Z,995.64
2023-03-06T06:10:03.869Z,995.64
2023-03-06T06:11:03.476Z,995.62
2023-03-06T06:12:02.871Z,995.71
2023-03-06T06:13:02.759Z,995.64
2023-03-06T06:14:02.920Z,995.65
2023-03-06T06:15:02.608Z,995.63
2023-03-06T06:16:02.827Z,995.65
2023-03-06T06:17:02.755Z,995.62
2023-03-06T06:18:02.813Z,995.61
2023-03-06T06:19:02.755Z,995.60
2023-03-06T06:20:03.064Z,995.61
2023-03-06T06:21:03.011Z,995.65
2023-03-06T06:22:03.068Z,995.67
2023-03-06T06:23:02.697Z,995.61
2023-03-06T06:24:02.976Z,995.63
2023-03-06T06:25:02.770Z,995.61
2023-03-06T06:26:03.117Z,995.62
2023-03-06T06:27:04.171Z,995.63
2023-03-06T06:28:03.722Z,995.61
2023-03-06T06:29:03.618Z,995.60
2023-03-06T06:30:03.355Z,995.64
2023-03-06T06:31:03.692Z,995.58
2023-03-06T06:32:02.222Z,995.58
2023-03-06T06:33:02.715Z,995.56
2023-03-06T06:34:02.765Z,995.61
2023-03-06T06:35:02.535Z,995.64
2023-03-06T06:36:02.433Z,995.62
2023-03-06T06:37:02.719Z,995.58
2023-03-06T06:38:03.183Z,995.63
2023-03-06T06:39:02.861Z,995.67
2023-03-06T06:40:02.950Z,995.66
2023-03-06T06:41:35.557Z,995.63
2023-03-06T06:42:25.883Z,995.62
2023-03-06T06:43:02.612Z,995.65
2023-03-06T06:44:02.775Z,995.62
2023-03-06T06:45:02.421Z,995.61
2023-03-06T06:46:32.097Z,995.66
2023-03-06T06:47:22.274Z,995.66
2023-03-06T06:48:02.742Z,995.66
2023-03-06T06:49:02.716Z,995.65
2023-03-06T06:50:02.703Z,995.67
2023-03-06T06:51:02.580Z,995.64
2023-03-06T06:52:02.407Z,995.62
2023-03-06T06:53:02.864Z,995.65
2023-03-06T06:54:02.529Z,995.63
2023-03-06T06:55:02.912Z,995.65
2023-03-06T06:56:02.969Z,995.63
2023-03-06T06:57:02.869Z,995.62
2023-03-06T06:58:03.089Z,995.62
2023-03-06T06:59:15.633Z,995.66
2023-03-06T07:00:03.051Z,995.63
2023-03-06T07:01:02.904Z,995.62
2023-03-06T07:02:02.166Z,995.67
2023-03-06T07:03:02.042Z,995.64
2023-03-06T07:04:02.296Z,995.70
2023-03-06T07:05:05.262Z,995.67
2023-03-06T07:06:02.191Z,995.63
2023-03-06T07:07:02.559Z,995.65
2023-03-06T07:08:03.096Z,995.67
2023-03-06T07:09:02.943Z,995.65
2023-03-06T07:10:02.851Z,995.66
2023-03-06T07:11:02.767Z,995.63
2023-03-06T07:12:03.109Z,995.67
2023-03-06T07:13:03.338Z,995.68
2023-03-06T07:14:03.408Z,995.71
2023-03-06T07:15:02.885Z,995.68
2023-03-06T07:16:02.963Z,995.78
2023-03-06T07:17:02.466Z,995.70
2023-03-06T07:18:02.914Z,995.70
2023-03-06T07:19:02.469Z,995.76
2023-03-06T07:20:02.308Z,995.74
2023-03-06T07:21:02.230Z,995.73
2023-03-06T07:22:02.910Z,995.78
2023-03-06T07:23:03.043Z,995.73
2023-03-06T07:24:03.230Z,995.70
2023-03-06T07:25:02.989Z,995.70
2023-03-06T07:26:02.788Z,995.69
2023-03-06T07:27:02.190Z,995.72
2023-03-06T07:28:02.898Z,995.75
2023-03-06T07:29:02.622Z,995.75
2023-03-06T07:30:02.442Z,995.74
2023-03-06T07:31:02.506Z,995.76
2023-03-06T07:32:02.994Z,995.74
2023-03-06T07:33:02.266Z,995.73
2023-03-06T07:34:04.946Z,995.75
2023-03-06T07:35:18.952Z,995.75
2023-03-06T07:36:02.403Z,995.76
2023-03-06T07:37:02.904Z,995.76
2023-03-06T07:38:02.488Z,995.73
2023-03-06T07:39:02.427Z,995.77
2023-03-06T07:40:02.786Z,995.75
2023-03-06T07:41:03.049Z,995.70
2023-03-06T07:42:02.320Z,995.75
2023-03-06T07:43:19.032Z,995.73
2023-03-06T07:44:02.548Z,995.71
2023-03-06T07:45:02.063Z,995.72
2023-03-06T07:46:02.018Z,995.70
2023-03-06T07:47:02.518Z,995.72
2023-03-06T07:48:04.420Z,995.73
2023-03-06T07:49:02.789Z,995.77
2023-03-06T07:50:02.602Z,995.69
2023-03-06T07:51:02.262Z,995.74
2023-03-06T07:52:02.115Z,995.76
2023-03-06T07:53:01.917Z,995.70
2023-03-06T07:54:02.352Z,995.75
2023-03-06T07:55:02.185Z,995.76
2023-03-06T07:56:01.887Z,995.79
2023-03-06T07:57:02.462Z,995.77
2023-03-06T07:58:02.582Z,995.77
2023-03-06T07:59:02.286Z,995.77
2023-03-06T08:00:02.334Z,995.75
2023-03-06T08:01:02.672Z,995.79
2023-03-06T08:02:02.893Z,995.78
2023-03-06T08:03:03.336Z,995.79
2023-03-06T08:04:02.956Z,995.81
2023-03-06T08:05:02.828Z,995.75
2023-03-06T08:06:03.187Z,995.76
2023-03-06T08:07:03.242Z,995.76
2023-03-06T08:08:03.298Z,995.85
2023-03-06T08:09:03.213Z,995.77
2023-03-06T08:10:03.165Z,995.79
2023-03-06T08:11:03.300Z,995.81
2023-03-06T08:12:03.187Z,995.73
2023-03-06T08:13:03.156Z,995.83
2023-03-06T08:14:03.271Z,995.72
2023-03-06T08:15:03.349Z,995.77
2023-03-06T08:16:03.249Z,995.81
2023-03-06T08:17:02.596Z,995.89
2023-03-06T08:18:02.884Z,995.81
2023-03-06T08:19:02.960Z,995.80
2023-03-06T08:20:02.851Z,995.79
2023-03-06T08:21:02.790Z,995.81
2023-03-06T08:22:03.105Z,995.80
2023-03-06T08:23:03.122Z,995.82
2023-03-06T08:24:03.066Z,995.80
2023-03-06T08:25:02.719Z,995.79
2023-03-06T08:26:03.217Z,995.82
2023-03-06T08:27:02.706Z,995.79
2023-03-06T08:28:02.385Z,995.89
2023-03-06T08:29:02.906Z,995.79
2023-03-06T08:30:02.794Z,995.83
2023-03-06T08:31:02.733Z,995.82
2023-03-06T08:32:03.183Z,995.86
2023-03-06T08:33:02.942Z,995.79
2023-03-06T08:34:02.596Z,995.80
2023-03-06T08:35:02.590Z,995.87
2023-03-06T08:36:02.774Z,995.79
2023-03-06T08:37:02.490Z,995.80
2023-03-06T08:38:02.262Z,995.81
2023-03-06T08:39:02.219Z,995.83
2023-03-06T08:40:01.938Z,995.77
2023-03-06T08:41:02.577Z,995.78
2023-03-06T08:42:02.406Z,995.75
2023-03-06T08:43:02.336Z,995.76
2023-03-06T08:44:02.365Z,995.76
2023-03-06T08:45:02.558Z,995.76
2023-03-06T08:46:02.787Z,995.77
2023-03-06T08:47:03.246Z,995.77
2023-03-06T08:48:03.067Z,995.78
2023-03-06T08:49:02.852Z,995.80
2023-03-06T08:50:02.805Z,995.79
2023-03-06T08:51:03.192Z,995.78
2023-03-06T08:52:03.224Z,995.79
2023-03-06T08:53:03.264Z,995.82
2023-03-06T08:54:03.052Z,995.80
2023-03-06T08:55:02.972Z,995.91
2023-03-06T08:56:02.793Z,995.86
2023-03-06T08:57:02.775Z,995.82
2023-03-06T08:58:02.270Z,995.81
2023-03-06T08:59:02.447Z,995.82
2023-03-06T09:00:02.375Z,995.85
2023-03-06T09:01:02.831Z,995.82
2023-03-06T09:02:03.251Z,995.86
2023-03-06T09:03:02.791Z,995.83
2023-03-06T09:04:03.283Z,995.89
2023-03-06T09:05:02.825Z,995.86
2023-03-06T09:06:02.734Z,995.85
2023-03-06T09:07:03.661Z,995.89
2023-03-06T09:08:03.464Z,995.88
2023-03-06T09:09:03.212Z,995.84
2023-03-06T09:10:03.634Z,995.85
2023-03-06T09:11:03.241Z,995.83
2023-03-06T09:12:02.885Z,995.86
2023-03-06T09:13:02.970Z,995.90
2023-03-06T09:14:02.902Z,995.80
2023-03-06T09:15:02.888Z,995.82
2023-03-06T09:16:02.989Z,995.82
2023-03-06T09:17:02.334Z,995.79
2023-03-06T09:18:02.628Z,995.83
2023-03-06T09:19:02.699Z,995.81
2023-03-06T09:20:02.530Z,995.84
2023-03-06T09:21:02.397Z,995.80
2023-03-06T09:22:03.022Z,995.86
2023-03-06T09:23:03.013Z,995.82
2023-03-06T09:24:03.180Z,995.79
2023-03-06T09:25:03.485Z,995.85
2023-03-06T09:26:03.347Z,995.84
2023-03-06T09:27:02.627Z,995.81
2023-03-06T09:28:11.365Z,995.81
2023-03-06T09:29:02.748Z,995.86
2023-03-06T09:30:02.597Z,995.81
2023-03-06T09:31:03.179Z,995.78
2023-03-06T09:32:02.837Z,995.84
2023-03-06T09:33:02.955Z,995.82
2023-03-06T09:34:03.374Z,995.83
2023-03-06T09:35:03.239Z,995.85
2023-03-06T09:36:03.082Z,995.81
2023-03-06T09:37:02.897Z,995.83
2023-03-06T09:38:03.076Z,995.81
2023-03-06T09:39:03.159Z,995.87
2023-03-06T09:40:03.159Z,995.84
2023-03-06T09:41:03.171Z,995.84
2023-03-06T09:42:02.287Z,995.80
2023-03-06T09:43:02.796Z,995.90
2023-03-06T09:44:02.320Z,995.82
2023-03-06T09:45:02.294Z,995.88
2023-03-06T09:46:02.447Z,995.86
2023-03-06T09:47:02.501Z,995.85
2023-03-06T09:48:02.518Z,995.83
2023-03-06T09:49:02.774Z,995.83
2023-03-06T09:50:02.328Z,995.79
2023-03-06T09:51:02.265Z,995.81
2023-03-06T09:52:02.846Z,995.79
2023-03-06T09:53:03.353Z,995.84
2023-03-06T09:54:03.308Z,995.84
2023-03-06T09:55:03.024Z,995.80
2023-03-06T09:56:03.200Z,995.88
2023-03-06T09:57:02.722Z,995.85
2023-03-06T09:58:02.757Z,995.85
2023-03-06T09:59:02.460Z,995.89
2023-03-06T10:00:04.432Z,995.85
2023-03-06T10:01:02.794Z,995.88
2023-03-06T10:02:02.628Z,995.81
2023-03-06T10:03:02.835Z,995.81
2023-03-06T10:04:02.776Z,995.82
2023-03-06T10:05:03.073Z,995.83
2023-03-06T10:06:03.014Z,995.83
2023-03-06T10:07:02.885Z,995.82
2023-03-06T10:08:03.064Z,995.79
2023-03-06T10:09:03.211Z,995.83
2023-03-06T10:10:03.057Z,995.83
2023-03-06T10:11:03.286Z,995.78
2023-03-06T10:12:03.018Z,995.76
2023-03-06T10:13:03.288Z,995.78
2023-03-06T10:14:03.105Z,995.82
2023-03-06T10:15:02.840Z,995.75
2023-03-06T10:16:03.058Z,995.83
2023-03-06T10:17:03.379Z,995.79
2023-03-06T10:18:03.753Z,995.76
2023-03-06T10:19:03.775Z,995.80
2023-03-06T10:20:03.414Z,995.81
2023-03-06T10:21:18.485Z,995.80
2023-03-06T10:22:03.002Z,995.81
2023-03-06T10:23:05.075Z,995.82
2023-03-06T10:24:02.933Z,995.83
2023-03-06T10:25:03.295Z,995.82
2023-03-06T10:26:03.051Z,995.81
2023-03-06T10:27:02.564Z,995.79
2023-03-06T10:28:02.672Z,995.80
2023-03-06T10:29:02.721Z,995.73
2023-03-06T10:30:03.972Z,995.82
2023-03-06T10:31:02.313Z,995.81
2023-03-06T10:32:03.147Z,995.77
2023-03-06T10:33:03.077Z,995.80
2023-03-06T10:34:03.258Z,995.81
2023-03-06T10:35:03.456Z,995.80
2023-03-06T10:36:03.508Z,995.77
2023-03-06T10:37:02.574Z,995.77
2023-03-06T10:38:02.975Z,995.77
2023-03-06T10:39:03.032Z,995.75
2023-03-06T10:40:02.734Z,995.80
2023-03-06T10:41:02.984Z,995.78
2023-03-06T10:42:02.921Z,995.82
2023-03-06T10:43:11.346Z,995.72
2023-03-06T10:44:02.863Z,995.74
2023-03-06T10:45:02.919Z,995.73
2023-03-06T10:46:02.913Z,995.73
2023-03-06T10:47:03.166Z,995.71
2023-03-06T10:48:03.135Z,995.72
2023-03-06T10:49:03.082Z,995.74
2023-03-06T10:50:02.881Z,995.74
2023-03-06T10:51:09.832Z,995.69
2023-03-06T10:52:02.568Z,995.70
2023-03-06T10:53:02.541Z,995.71
2023-03-06T10:54:02.302Z,995.74
2023-03-06T10:55:02.226Z,995.64
2023-03-06T10:56:02.386Z,995.67
2023-03-06T10:57:03.087Z,995.61
2023-03-06T10:58:03.004Z,995.62
2023-03-06T10:59:02.702Z,995.68
2023-03-06T11:00:02.733Z,995.65
2023-03-06T11:01:03.285Z,995.63
2023-03-06T11:02:02.298Z,995.65
2023-03-06T11:03:01.947Z,995.61
2023-03-06T11:04:01.785Z,995.67
2023-03-06T11:05:02.379Z,995.66
2023-03-06T11:06:01.987Z,995.61
2023-03-06T11:07:02.510Z,995.62
2023-03-06T11:08:02.265Z,995.64
2023-03-06T11:09:02.178Z,995.63
2023-03-06T11:10:02.088Z,995.59
2023-03-06T11:11:02.143Z,995.61
2023-03-06T11:12:02.592Z,995.59
2023-03-06T11:13:02.347Z,995.61
2023-03-06T11:14:02.594Z,995.58
2023-03-06T11:15:02.787Z,995.59
2023-03-06T11:16:02.579Z,995.64
2023-03-06T11:17:02.218Z,995.58
2023-03-06T11:18:02.102Z,995.57
2023-03-06T11:19:01.770Z,995.59
2023-03-06T11:20:02.345Z,995.62
2023-03-06T11:21:02.318Z,995.58
2023-03-06T11:22:02.370Z,995.64
2023-03-06T11:23:02.136Z,995.67
2023-03-06T11:24:01.965Z,995.66
2023-03-06T11:25:02.160Z,995.62
2023-03-06T11:26:01.959Z,995.61
2023-03-06T11:27:02.524Z,995.56
2023-03-06T11:28:02.417Z,995.59
2023-03-06T11:29:02.325Z,995.58
2023-03-06T11:30:02.251Z,995.56
2023-03-06T11:31:02.082Z,995.54
2023-03-06T11:32:02.057Z,995.56
2023-03-06T11:33:01.787Z,995.44
2023-03-06T11:34:01.961Z,995.46
2023-03-06T11:35:01.816Z,995.42
2023-03-06T11:36:01.655Z,995.42
2023-03-06T11:37:02.260Z,995.43
2023-03-06T11:38:02.279Z,995.36
2023-03-06T11:39:01.814Z,995.39
2023-03-06T11:40:01.928Z,995.33
2023-03-06T11:41:02.330Z,995.37
2023-03-06T11:42:02.268Z,995.43
2023-03-06T11:43:01.868Z,995.39
2023-03-06T11:44:02.299Z,995.34
2023-03-06T11:45:03.185Z,995.36
2023-03-06T11:46:01.740Z,995.36
2023-03-06T11:47:02.919Z,995.34
2023-03-06T11:48:02.917Z,995.29
2023-03-06T11:49:02.531Z,995.26
2023-03-06T11:50:02.435Z,995.28
2023-03-06T11:51:03.246Z,995.19
2023-03-06T11:52:02.020Z,995.28
2023-03-06T11:53:02.057Z,995.26
2023-03-06T11:54:01.812Z,995.22
2023-03-06T11:55:01.594Z,995.30
2023-03-06T11:56:01.920Z,995.23
2023-03-06T11:57:02.086Z,995.25
2023-03-06T11:58:01.897Z,995.26
2023-03-06T11:59:01.755Z,995.22
2023-03-06T12:00:01.675Z,995.28
2023-03-06T12:01:02.179Z,995.24
2023-03-06T12:02:02.698Z,995.19
2023-03-06T12:03:02.642Z,995.18
2023-03-06T12:04:02.628Z,995.19
2023-03-06T12:05:02.676Z,995.25
2023-03-06T12:06:02.383Z,995.24
2023-03-06T12:07:02.877Z,995.26
2023-03-06T12:08:02.291Z,995.20
2023-03-06T12:09:02.835Z,995.21
2023-03-06T12:10:02.666Z,995.20
2023-03-06T12:11:02.483Z,995.20
2023-03-06T12:12:01.864Z,995.24
2023-03-06T12:13:02.208Z,995.19
2023-03-06T12:14:04.012Z,995.22
2023-03-06T12:15:02.159Z,995.23
2023-03-06T12:16:02.008Z,995.19
2023-03-06T12:17:01.929Z,995.15
2023-03-06T12:18:02.212Z,995.11
2023-03-06T12:19:02.052Z,995.13
2023-03-06T12:20:02.186Z,995.15
2023-03-06T12:21:02.080Z,995.14
2023-03-06T12:22:02.578Z,995.14
2023-03-06T12:23:14.447Z,995.07
2023-03-06T12:24:02.221Z,995.05
2023-03-06T12:25:02.362Z,995.06
2023-03-06T12:26:01.677Z,995.04
2023-03-06T12:27:01.639Z,995.02
2023-03-06T12:28:01.753Z,995.07